Terminal Aerodrome Forecast
Issued by NWS Grand Junction, CO

Home | Current Version | Previous Version | Text Only | Print | Product List | Glossary On
Versions: 1 2 3 4 5 6 7 8 9 10 11 12 13 14 15 16 17 18
000
FTUS45 KGJT 020251 AAE
TAFGJT
TAF AMD
KGJT 020251Z 0203/0224 15013KT P6SM VCSH SCT070 OVC090
     FM020700 12008KT P6SM VCSH OVC070
     FM020900 13005KT P6SM OVC060
     FM021700 21004KT P6SM BKN050=

USA.gov is the U.S. government's official web portal to all federal, state and local government web resources and services.